createdAt,value
2022-08-18T00:02:11.139Z,9.87
2022-08-18T00:04:49.206Z,10.20
2022-08-18T00:07:28.914Z,10.17
2022-08-18T00:09:56.009Z,9.97
2022-08-18T00:12:32.671Z,10.57
2022-08-18T00:15:05.182Z,9.77
2022-08-18T00:17:34.313Z,10.03
2022-08-18T00:20:01.508Z,10.83
2022-08-18T00:22:28.835Z,10.20
2022-08-18T00:24:57.098Z,11.13
2022-08-18T00:27:28.765Z,11.07
2022-08-18T00:29:58.085Z,11.40
2022-08-18T00:32:28.939Z,11.10
2022-08-18T00:34:56.305Z,11.17
2022-08-18T00:37:24.106Z,10.80
2022-08-18T00:39:52.665Z,11.07
2022-08-18T00:42:30.710Z,10.77
2022-08-18T00:45:01.630Z,11.27
2022-08-18T00:47:36.402Z,10.47
2022-08-18T00:50:15.464Z,9.73
2022-08-18T00:52:47.883Z,10.33
2022-08-18T00:55:17.863Z,10.23
2022-08-18T00:57:46.190Z,10.60
2022-08-18T01:00:14.074Z,10.10
2022-08-18T01:02:49.750Z,11.40
2022-08-18T01:05:33.871Z,10.37
2022-08-18T01:08:01.165Z,10.40
2022-08-18T01:10:28.246Z,10.83
2022-08-18T01:12:57.487Z,10.97
2022-08-18T01:15:28.887Z,10.73
2022-08-18T01:18:17.277Z,10.67
2022-08-18T01:21:26.963Z,10.87
2022-08-18T01:23:54.886Z,11.07
2022-08-18T01:26:24.208Z,10.73
2022-08-18T01:28:52.423Z,9.53
2022-08-18T01:31:38.099Z,9.90
2022-08-18T01:34:10.519Z,10.67
2022-08-18T01:36:40.507Z,10.87
2022-08-18T01:39:12.720Z,11.13
2022-08-18T01:41:40.700Z,11.47
2022-08-18T01:44:11.167Z,10.80
2022-08-18T01:46:41.569Z,10.83
2022-08-18T01:49:10.459Z,11.13
2022-08-18T01:51:41.411Z,11.57
2022-08-18T01:54:12.546Z,10.63
2022-08-18T01:56:42.334Z,10.87
2022-08-18T01:59:14.518Z,11.27
2022-08-18T02:01:50.331Z,10.57
2022-08-18T02:04:35.686Z,11.07
2022-08-18T02:07:07.411Z,10.83
2022-08-18T02:09:34.781Z,11.10
2022-08-18T02:12:01.670Z,10.57
2022-08-18T02:14:31.086Z,11.63
2022-08-18T02:17:01.621Z,11.60
2022-08-18T02:19:35.167Z,12.10
2022-08-18T02:22:02.662Z,12.20
2022-08-18T02:24:29.402Z,10.80
2022-08-18T02:26:56.676Z,11.70
2022-08-18T02:29:23.458Z,11.43
2022-08-18T02:31:50.603Z,11.83
2022-08-18T02:34:18.119Z,12.53
2022-08-18T02:36:45.627Z,12.33
2022-08-18T02:39:12.381Z,12.40
2022-08-18T02:41:39.451Z,12.03
2022-08-18T02:44:07.973Z,12.20
2022-08-18T02:46:35.738Z,11.20
2022-08-18T02:49:03.795Z,12.27
2022-08-18T02:51:30.909Z,11.63
2022-08-18T02:54:00.596Z,11.87
2022-08-18T02:56:40.812Z,11.80
2022-08-18T02:59:11.236Z,11.27
2022-08-18T03:01:40.612Z,11.40
2022-08-18T03:04:10.091Z,11.57
2022-08-18T03:06:38.121Z,12.10
2022-08-18T03:09:10.059Z,12.03
2022-08-18T03:11:38.047Z,12.00
2022-08-18T03:14:06.300Z,11.83
2022-08-18T03:16:40.417Z,12.13
2022-08-18T03:19:20.230Z,11.77
2022-08-18T03:21:48.228Z,11.17
2022-08-18T03:24:19.685Z,11.73
2022-08-18T03:26:50.500Z,12.30
2022-08-18T03:29:17.677Z,12.67
2022-08-18T03:31:45.382Z,13.17
2022-08-18T03:34:12.959Z,12.17
2022-08-18T03:36:40.327Z,12.80
2022-08-18T03:39:11.001Z,12.23
2022-08-18T03:41:57.564Z,12.53
2022-08-18T03:44:27.804Z,11.90
2022-08-18T03:46:54.627Z,12.10
2022-08-18T03:49:21.515Z,13.37
2022-08-18T03:51:48.866Z,12.80
2022-08-18T03:54:17.989Z,11.93
2022-08-18T03:56:47.165Z,13.30
2022-08-18T03:59:20.772Z,13.47
2022-08-18T04:01:50.594Z,12.70
2022-08-18T04:04:23.373Z,12.43
2022-08-18T04:06:54.365Z,11.17
2022-08-18T04:09:24.521Z,12.57
2022-08-18T04:11:51.719Z,11.93
2022-08-18T04:14:21.529Z,11.80
2022-08-18T04:16:49.309Z,12.60
2022-08-18T04:19:26.347Z,12.17
2022-08-18T04:21:54.486Z,13.27
2022-08-18T04:24:21.468Z,12.83
2022-08-18T04:26:49.907Z,13.37
2022-08-18T04:29:21.138Z,14.07
2022-08-18T04:31:49.224Z,12.63
2022-08-18T04:34:16.415Z,12.73
2022-08-18T04:36:43.694Z,11.97
2022-08-18T04:39:11.906Z,13.53
2022-08-18T04:41:41.012Z,14.27
2022-08-18T04:44:12.027Z,12.97
2022-08-18T04:46:46.356Z,13.63
2022-08-18T04:49:14.109Z,13.10
2022-08-18T04:52:34.562Z,13.10
2022-08-18T04:54:53.425Z,11.77
2022-08-18T04:57:21.088Z,11.40
2022-08-18T04:59:50.253Z,12.57
2022-08-18T05:02:18.429Z,13.70
2022-08-18T05:04:48.358Z,14.33
2022-08-18T05:07:19.241Z,13.37
2022-08-18T05:09:46.934Z,13.47
2022-08-18T05:12:15.347Z,12.53
2022-08-18T05:14:47.171Z,12.77
2022-08-18T05:17:16.208Z,12.37
2022-08-18T05:19:44.603Z,13.50
2022-08-18T05:22:14.552Z,14.27
2022-08-18T05:24:42.849Z,14.00
2022-08-18T05:27:09.573Z,13.60
2022-08-18T05:29:41.453Z,13.50
2022-08-18T05:32:40.981Z,13.87
2022-08-18T05:35:12.351Z,12.70
2022-08-18T05:37:54.272Z,12.87
2022-08-18T05:40:25.059Z,12.90
2022-08-18T05:42:52.063Z,13.10
2022-08-18T05:45:20.285Z,11.80
2022-08-18T05:47:47.177Z,11.90
2022-08-18T05:50:18.640Z,12.57
2022-08-18T05:52:58.403Z,13.97
2022-08-18T05:55:52.541Z,13.60
2022-08-18T05:58:33.108Z,14.33
2022-08-18T06:01:18.139Z,14.07
2022-08-18T06:04:01.554Z,13.17
2022-08-18T06:06:30.468Z,14.20
2022-08-18T06:09:28.282Z,14.13
2022-08-18T06:12:05.218Z,15.40
2022-08-18T06:14:31.982Z,13.33
2022-08-18T06:17:32.050Z,14.53
2022-08-18T06:20:10.782Z,13.10
2022-08-18T06:23:24.212Z,13.13
2022-08-18T06:26:10.490Z,13.43
2022-08-18T06:28:52.434Z,12.40
2022-08-18T06:31:41.122Z,13.17
2022-08-18T06:34:21.349Z,12.70
2022-08-18T06:36:58.827Z,14.80
2022-08-18T06:39:48.897Z,13.67
2022-08-18T06:42:25.939Z,14.00
2022-08-18T06:44:58.259Z,15.27
2022-08-18T06:48:03.322Z,15.30
2022-08-18T06:50:43.555Z,13.77
2022-08-18T06:53:27.090Z,14.63
2022-08-18T06:55:55.957Z,15.30
2022-08-18T06:58:30.209Z,15.13
2022-08-18T07:01:01.465Z,14.30
2022-08-18T07:03:46.034Z,14.60
2022-08-18T07:06:21.702Z,15.83
2022-08-18T07:08:51.462Z,15.37
2022-08-18T07:11:25.084Z,16.00
2022-08-18T07:14:15.042Z,16.47
2022-08-18T07:16:59.779Z,15.67
2022-08-18T07:19:31.032Z,16.53
2022-08-18T07:22:17.834Z,16.53
2022-08-18T07:24:49.212Z,16.63
2022-08-18T07:27:18.918Z,15.37
2022-08-18T07:30:07.359Z,14.37
2022-08-18T07:32:46.147Z,16.63
2022-08-18T07:35:18.036Z,16.13
2022-08-18T07:38:40.857Z,19.17
2022-08-18T07:41:14.231Z,18.77
2022-08-18T07:43:53.288Z,20.27
2022-08-18T07:46:28.893Z,20.10
2022-08-18T07:48:56.394Z,17.37
2022-08-18T07:51:47.433Z,20.27
2022-08-18T07:54:45.381Z,19.03
2022-08-18T07:57:28.411Z,18.63
2022-08-18T08:00:17.413Z,23.17
2022-08-18T08:02:59.606Z,22.20
2022-08-18T08:05:53.904Z,24.10
2022-08-18T08:08:39.750Z,19.67
2022-08-18T08:11:35.721Z,23.23
2022-08-18T08:14:48.337Z,22.57
2022-08-18T08:17:32.543Z,22.77
2022-08-18T08:20:32.765Z,23.30
2022-08-18T08:23:17.892Z,23.73
2022-08-18T08:26:23.630Z,24.73
2022-08-18T08:29:05.315Z,24.07
2022-08-18T08:31:44.262Z,27.27
2022-08-18T08:34:41.689Z,27.73
2022-08-18T08:37:19.396Z,26.83
2022-08-18T08:39:57.921Z,26.23
2022-08-18T08:42:36.336Z,26.97
2022-08-18T08:45:29.551Z,25.07
2022-08-18T08:48:09.883Z,26.90
2022-08-18T08:50:46.826Z,27.40
2022-08-18T08:53:29.055Z,24.77
2022-08-18T08:56:02.702Z,23.57
2022-08-18T08:58:41.365Z,25.53
2022-08-18T09:01:14.336Z,25.33
2022-08-18T09:03:59.701Z,25.07
2022-08-18T09:06:46.074Z,22.50
2022-08-18T09:09:51.935Z,24.40
2022-08-18T09:12:37.241Z,24.90
2022-08-18T09:15:25.378Z,24.13
2022-08-18T09:18:08.583Z,24.37
2022-08-18T09:20:58.209Z,28.40
2022-08-18T09:23:32.119Z,25.50
2022-08-18T09:26:20.418Z,25.50
2022-08-18T09:28:59.565Z,24.57
2022-08-18T09:31:31.818Z,26.27
2022-08-18T09:34:11.046Z,26.07
2022-08-18T09:36:48.602Z,25.10
2022-08-18T09:39:40.572Z,25.70
2022-08-18T09:42:29.915Z,23.50
2022-08-18T09:45:00.897Z,22.53
2022-08-18T09:47:27.637Z,25.93
2022-08-18T09:50:06.128Z,24.97
2022-08-18T09:52:37.609Z,22.90
2022-08-18T09:55:28.940Z,25.03
2022-08-18T09:58:20.110Z,23.60
2022-08-18T10:01:28.846Z,24.70
2022-08-18T10:07:32.014Z,23.07
2022-08-18T10:11:01.607Z,26.67
2022-08-18T10:13:33.109Z,25.20
2022-08-18T10:16:38.268Z,26.00
2022-08-18T10:19:39.814Z,25.10
2022-08-18T10:22:10.726Z,24.20
2022-08-18T10:24:47.015Z,26.10
2022-08-18T10:27:49.032Z,24.83
2022-08-18T10:30:34.273Z,24.07
2022-08-18T10:33:17.775Z,25.17
2022-08-18T10:35:58.686Z,24.77
2022-08-18T10:41:25.967Z,21.93
2022-08-18T10:43:57.875Z,22.73
2022-08-18T10:46:32.556Z,22.57
2022-08-18T10:49:09.373Z,20.67
2022-08-18T10:54:59.095Z,22.90
2022-08-18T10:57:54.549Z,22.67
2022-08-18T11:00:22.668Z,19.13
2022-08-18T11:06:18.010Z,17.08
2022-08-18T11:08:55.382Z,15.77
2022-08-18T11:11:39.338Z,16.52
2022-08-18T11:14:37.062Z,17.63
2022-08-18T11:17:12.339Z,17.17
2022-08-18T11:19:45.065Z,20.25
2022-08-18T11:25:32.480Z,15.35
2022-08-18T11:28:01.466Z,16.30
2022-08-18T11:30:44.115Z,16.35
2022-08-18T11:33:23.078Z,15.25
2022-08-18T11:35:57.933Z,14.32
2022-08-18T11:41:23.143Z,14.50
2022-08-18T11:43:57.861Z,15.98
2022-08-18T11:46:38.808Z,15.55
2022-08-18T11:49:33.911Z,14.57
2022-08-18T11:52:15.250Z,14.07
2022-08-18T11:54:50.680Z,15.32
2022-08-18T11:57:46.373Z,13.77
2022-08-18T12:00:43.307Z,14.15
2022-08-18T12:03:28.779Z,14.00
2022-08-18T12:06:19.041Z,12.73
2022-08-18T12:08:59.065Z,14.68
2022-08-18T12:12:00.986Z,13.80
2022-08-18T12:14:35.214Z,16.05
2022-08-18T12:17:04.729Z,17.08
2022-08-18T12:19:34.436Z,14.20
2022-08-18T12:22:10.955Z,12.98
2022-08-18T12:24:39.260Z,13.95
2022-08-18T12:27:12.543Z,13.38
2022-08-18T12:29:53.137Z,13.40
2022-08-18T12:35:11.867Z,14.77
2022-08-18T12:37:58.903Z,13.23
2022-08-18T12:40:26.767Z,12.23
2022-08-18T12:42:55.737Z,11.43
2022-08-18T12:45:23.376Z,14.38
2022-08-18T12:47:52.703Z,11.38
2022-08-18T12:50:19.802Z,11.18
2022-08-18T12:52:46.975Z,10.80
2022-08-18T12:55:21.257Z,11.07
2022-08-18T13:00:37.209Z,11.40
2022-08-18T13:03:04.183Z,10.13
2022-08-18T13:05:31.181Z,9.95
2022-08-18T13:08:04.381Z,10.82
2022-08-18T13:10:42.849Z,9.63
2022-08-18T13:13:18.494Z,9.23
2022-08-18T13:15:57.980Z,9.48
2022-08-18T13:18:28.666Z,9.27
2022-08-18T13:20:57.672Z,8.45
2022-08-18T13:23:27.630Z,9.23
2022-08-18T13:25:59.378Z,8.75
2022-08-18T13:28:35.844Z,8.07
2022-08-18T13:31:16.928Z,8.23
2022-08-18T13:33:56.992Z,7.85
2022-08-18T13:36:44.265Z,7.75
2022-08-18T13:39:22.898Z,9.30
2022-08-18T13:41:52.994Z,7.55
2022-08-18T13:44:22.529Z,8.20
2022-08-18T13:46:55.509Z,7.57
2022-08-18T13:49:30.330Z,8.40
2022-08-18T13:52:00.322Z,8.75
2022-08-18T13:54:34.026Z,7.53
2022-08-18T13:57:03.208Z,7.75
2022-08-18T13:59:33.147Z,7.72
2022-08-18T14:02:05.838Z,9.20
2022-08-18T14:04:36.299Z,8.20
2022-08-18T14:07:09.192Z,7.78
2022-08-18T14:09:37.995Z,7.75
2022-08-18T14:12:15.910Z,7.53
2022-08-18T14:14:52.020Z,8.77
2022-08-18T14:17:22.598Z,8.32
2022-08-18T14:20:10.695Z,8.30
2022-08-18T14:23:01.508Z,8.90
2022-08-18T14:25:49.315Z,7.45
2022-08-18T14:28:19.577Z,8.25
2022-08-18T14:30:54.674Z,8.63
2022-08-18T14:33:34.589Z,8.57
2022-08-18T14:36:10.940Z,9.02
2022-08-18T14:38:38.486Z,8.30
2022-08-18T14:41:08.867Z,7.72
2022-08-18T14:44:10.336Z,8.73
2022-08-18T14:46:23.633Z,9.02
2022-08-18T14:48:57.601Z,10.32
2022-08-18T14:51:27.283Z,9.82
2022-08-18T14:53:55.695Z,9.73
2022-08-18T14:56:23.425Z,9.05
2022-08-18T14:58:55.378Z,9.02
2022-08-18T15:01:23.241Z,9.10
2022-08-18T15:03:50.779Z,8.68
2022-08-18T15:06:23.025Z,7.85
2022-08-18T15:08:57.036Z,7.93
2022-08-18T15:11:24.574Z,9.98
2022-08-18T15:13:51.713Z,9.40
2022-08-18T15:16:23.037Z,11.02
2022-08-18T15:18:58.792Z,10.38
2022-08-18T15:21:43.921Z,10.55
2022-08-18T15:24:29.653Z,10.50
2022-08-18T15:27:06.166Z,9.02
2022-08-18T15:29:37.117Z,9.32
2022-08-18T15:32:10.621Z,8.95
2022-08-18T15:34:46.107Z,9.05
2022-08-18T15:37:19.786Z,9.77
2022-08-18T15:39:55.563Z,10.20
2022-08-18T15:42:23.405Z,9.93
2022-08-18T15:44:52.610Z,9.85
2022-08-18T15:47:21.019Z,10.65
2022-08-18T15:49:48.494Z,11.07
2022-08-18T15:52:17.635Z,11.52
2022-08-18T15:54:51.039Z,10.43
2022-08-18T15:57:38.441Z,10.90
2022-08-18T16:00:06.745Z,11.73
2022-08-18T16:02:40.059Z,10.38
2022-08-18T16:05:10.196Z,11.38
2022-08-18T16:07:40.978Z,10.73
2022-08-18T16:10:12.747Z,10.40
2022-08-18T16:12:45.630Z,10.73
2022-08-18T16:15:21.116Z,11.73
2022-08-18T16:17:50.427Z,11.15
2022-08-18T16:20:18.913Z,10.82
2022-08-18T16:22:46.977Z,12.55
2022-08-18T16:25:14.452Z,11.52
2022-08-18T16:27:41.999Z,11.02
2022-08-18T16:30:15.731Z,11.77
2022-08-18T16:32:43.453Z,12.52
2022-08-18T16:35:11.030Z,11.63
2022-08-18T16:37:38.328Z,11.50
2022-08-18T16:40:06.126Z,11.52
2022-08-18T16:42:32.922Z,12.32
2022-08-18T16:45:00.789Z,13.00
2022-08-18T16:47:28.042Z,12.23
2022-08-18T16:49:58.635Z,12.45
2022-08-18T16:52:27.649Z,13.57
2022-08-18T16:54:57.917Z,13.25
2022-08-18T16:57:53.219Z,13.32
2022-08-18T17:00:42.050Z,13.68
2022-08-18T17:03:28.215Z,13.38
2022-08-18T17:06:00.981Z,13.27
2022-08-18T17:08:28.445Z,14.68
2022-08-18T17:10:55.304Z,13.82
2022-08-18T17:13:23.249Z,14.13
2022-08-18T17:15:50.531Z,14.27
2022-08-18T17:18:17.773Z,12.43
2022-08-18T17:20:44.554Z,13.00
2022-08-18T17:23:11.213Z,14.18
2022-08-18T17:25:38.643Z,13.88
2022-08-18T17:28:09.973Z,14.63
2022-08-18T17:30:46.273Z,13.40
2022-08-18T17:33:19.364Z,13.82
2022-08-18T17:35:47.540Z,13.32
2022-08-18T17:38:27.209Z,13.70
2022-08-18T17:40:57.106Z,14.77
2022-08-18T17:43:29.214Z,13.38
2022-08-18T17:46:01.113Z,13.38
2022-08-18T17:48:33.592Z,13.52
2022-08-18T17:51:34.735Z,13.60
2022-08-18T17:54:37.022Z,12.90
2022-08-18T17:57:35.136Z,12.55
2022-08-18T18:00:15.697Z,11.93
2022-08-18T18:02:48.090Z,12.07
2022-08-18T18:05:19.179Z,10.27
2022-08-18T18:07:52.118Z,11.20
2022-08-18T18:10:51.022Z,11.43
2022-08-18T18:13:24.261Z,10.35
2022-08-18T18:16:01.009Z,11.10
2022-08-18T18:18:31.334Z,11.45
2022-08-18T18:21:02.910Z,11.73
2022-08-18T18:23:41.945Z,10.80
2022-08-18T18:26:20.293Z,11.63
2022-08-18T18:28:47.201Z,11.93
2022-08-18T18:31:20.986Z,10.52
2022-08-18T18:34:00.395Z,11.77
2022-08-18T18:36:42.937Z,10.98
2022-08-18T18:39:33.199Z,12.55
2022-08-18T18:42:19.357Z,11.35
2022-08-18T18:44:54.762Z,11.93
2022-08-18T18:47:49.730Z,12.10
2022-08-18T18:50:26.749Z,12.35
2022-08-18T18:53:12.396Z,12.73
2022-08-18T18:55:54.587Z,11.95
2022-08-18T18:58:53.255Z,12.55
2022-08-18T19:01:38.645Z,12.45
2022-08-18T19:04:13.341Z,12.80
2022-08-18T19:07:07.915Z,13.52
2022-08-18T19:09:48.565Z,11.85
2022-08-18T19:12:33.269Z,12.37
2022-08-18T19:15:11.521Z,13.05
2022-08-18T19:17:51.084Z,11.40
2022-08-18T19:20:25.166Z,12.13
2022-08-18T19:22:54.222Z,11.37
2022-08-18T19:25:23.229Z,11.93
2022-08-18T19:28:03.921Z,12.23
2022-08-18T19:30:34.263Z,12.43
2022-08-18T19:33:04.298Z,13.27
2022-08-18T19:35:59.161Z,12.37
2022-08-18T19:38:33.757Z,11.47
2022-08-18T19:41:19.814Z,11.47
2022-08-18T19:43:59.249Z,10.67
2022-08-18T19:46:45.037Z,11.93
2022-08-18T19:49:38.474Z,11.17
2022-08-18T19:52:46.870Z,10.70
2022-08-18T19:55:36.559Z,10.43
2022-08-18T19:58:29.691Z,11.07
2022-08-18T20:01:21.012Z,11.33
2022-08-18T20:04:04.998Z,11.10
2022-08-18T20:06:50.921Z,10.37
2022-08-18T20:09:32.658Z,11.47
2022-08-18T20:12:03.038Z,11.50
2022-08-18T20:14:35.669Z,12.03
2022-08-18T20:17:12.862Z,11.73
2022-08-18T20:19:44.242Z,11.67
2022-08-18T20:22:22.113Z,11.57
2022-08-18T20:24:59.475Z,12.43
2022-08-18T20:27:37.158Z,11.30
2022-08-18T20:30:30.544Z,11.30
2022-08-18T20:33:20.592Z,11.43
2022-08-18T20:35:54.789Z,11.70
2022-08-18T20:38:28.729Z,10.97
2022-08-18T20:40:55.971Z,11.73
2022-08-18T20:43:34.865Z,12.57
2022-08-18T20:46:15.553Z,11.90
2022-08-18T20:49:13.433Z,11.40
2022-08-18T20:52:06.511Z,11.40
2022-08-18T20:55:11.747Z,11.73
2022-08-18T20:57:40.171Z,11.83
2022-08-18T21:00:15.453Z,11.77
2022-08-18T21:02:58.815Z,12.13
2022-08-18T21:05:34.438Z,12.80
2022-08-18T21:08:15.890Z,11.60
2022-08-18T21:11:06.714Z,11.80
2022-08-18T21:13:42.388Z,11.33
2022-08-18T21:16:33.728Z,12.00
2022-08-18T21:19:23.466Z,12.27
2022-08-18T21:22:02.514Z,11.93
2022-08-18T21:24:41.535Z,12.50
2022-08-18T21:27:31.410Z,12.90
2022-08-18T21:30:03.329Z,12.63
2022-08-18T21:32:33.142Z,12.20
2022-08-18T21:35:05.798Z,11.70
2022-08-18T21:37:34.732Z,11.50
2022-08-18T21:40:04.542Z,12.20
2022-08-18T21:42:37.546Z,12.27
2022-08-18T21:45:04.718Z,12.23
2022-08-18T21:47:34.252Z,12.10
2022-08-18T21:50:17.984Z,11.73
2022-08-18T21:52:53.066Z,11.73
2022-08-18T21:55:45.053Z,12.57
2022-08-18T21:58:17.763Z,12.87
2022-08-18T22:01:07.188Z,12.40
2022-08-18T22:03:50.034Z,12.40
2022-08-18T22:06:30.710Z,11.20
2022-08-18T22:09:21.013Z,12.20
2022-08-18T22:12:07.087Z,11.80
2022-08-18T22:14:55.084Z,12.80
2022-08-18T22:17:34.854Z,12.47
2022-08-18T22:20:39.415Z,12.87
2022-08-18T22:23:31.647Z,13.43
2022-08-18T22:26:20.389Z,13.07
2022-08-18T22:29:16.600Z,12.97
2022-08-18T22:31:46.638Z,12.93
2022-08-18T22:34:17.473Z,12.67
2022-08-18T22:37:04.051Z,12.17
2022-08-18T22:39:52.310Z,11.87
2022-08-18T22:42:25.654Z,11.80
2022-08-18T22:44:53.481Z,11.97
2022-08-18T22:47:20.825Z,12.30
2022-08-18T22:49:48.064Z,12.57
2022-08-18T22:52:29.883Z,13.07
2022-08-18T22:55:02.710Z,12.10
2022-08-18T22:57:36.432Z,12.03
2022-08-18T23:00:17.151Z,12.50
2022-08-18T23:03:06.953Z,12.00
2022-08-18T23:05:34.146Z,12.47
2022-08-18T23:08:02.494Z,12.37
2022-08-18T23:10:29.496Z,13.57
2022-08-18T23:12:57.388Z,13.63
2022-08-18T23:15:47.508Z,13.33
2022-08-18T23:18:19.122Z,12.70
2022-08-18T23:20:51.890Z,12.97
2022-08-18T23:23:20.993Z,11.93
2022-08-18T23:25:50.365Z,13.47
2022-08-18T23:28:19.281Z,13.17
2022-08-18T23:30:48.754Z,14.17
2022-08-18T23:33:16.056Z,13.43
2022-08-18T23:35:43.569Z,13.63
2022-08-18T23:38:12.473Z,12.40
2022-08-18T23:40:43.996Z,12.47
2022-08-18T23:43:11.096Z,12.47
2022-08-18T23:45:39.545Z,12.37
2022-08-18T23:48:08.483Z,13.30
2022-08-18T23:50:40.246Z,13.23
2022-08-18T23:53:08.539Z,13.67
2022-08-18T23:55:35.501Z,13.93
2022-08-18T23:58:02.381Z,14.90
